Auburn, IN

3:16 AM EDT on August 23, 2019 (GMT -0400)
Auburn

Weather History for KGWB - May, 2019

Change the Weather History Date:

Sunday, May 12, 2019

  Actual Average (KFWA) Record (KFWA)
Temperature  
Mean Temperature 46 °F -  
Max Temperature 50 °F 69 °F 88 °F (2011)
Min Temperature 41 °F 49 °F 31 °F (1946)
Degree Days  
Heating Degree Days 20    
Moisture  
Dew Point 42 °F    
Average Humidity 86    
Maximum Humidity 100    
Minimum Humidity 76    
Precipitation  
Precipitation 0.12 in - - ()
Sea Level Pressure  
Sea Level Pressure 29.82 in    
Wind  
Wind Speed 8 mph (NE)    
Max Wind Speed 12 mph    
Max Gust Speed 18 mph    
Visibility 8 miles    
Events Rain    
Averages and records for this station are not official NWS values.
T = Trace of Precipitation, MM = Missing Value Source: NWS Daily Summary

Daily Weather History Graph

Daily Weather History Graph

Search for Another Location

Airport or City:

Astronomy

May. 12, 2019 Rise Set
Actual Time 6:24 AM EDT 8:48 PM EDT
Civil Twilight 5:53 AM EDT 9:20 PM EDT
Nautical Twilight 5:15 AM EDT 9:58 PM EDT
Astronomical Twilight 4:32 AM EDT 10:42 PM EDT
Moon 1:44 PM EDT (5/12) 3:10 AM EDT (5/12)
Length of Visible Light 15h 26m
Length of Day
14h 24m
First Quarter, 57% of the Moon is Illuminated
May 12
First Quarter
May 18
Full
May 26
Last Quarter
Jun 3
New
Jun 10
First Quarter

Hourly Weather History & Observations

Time (EDT) Temp. Windchill Dew Point Humidity Pressure Visibility Wind Dir Wind Speed Gust Speed Precip Events Conditions
12:15 AM 41.0 °F 35.2 °F 39.2 °F 93% 29.93 in 10.0 mi NE 9.2 mph - N/A   Light Drizzle
12:35 AM 41.0 °F 35.8 °F 39.2 °F 93% 29.93 in 10.0 mi NE 8.1 mph - N/A   Overcast
12:55 AM 42.8 °F 38.0 °F 39.2 °F 87% 29.92 in 10.0 mi NE 8.1 mph - N/A   Overcast
1:15 AM 42.8 °F 37.5 °F 39.2 °F 87% 29.91 in 10.0 mi NE 9.2 mph - N/A   Overcast
1:35 AM 42.8 °F 37.5 °F 39.2 °F 87% 29.91 in 10.0 mi NE 9.2 mph - N/A   Overcast
1:55 AM 42.8 °F 38.0 °F 37.4 °F 81% 29.90 in 10.0 mi NNE 8.1 mph - N/A   Overcast
2:15 AM 42.8 °F 37.5 °F 37.4 °F 81% 29.89 in 10.0 mi NE 9.2 mph - N/A   Overcast
2:35 AM 42.8 °F 38.0 °F 37.4 °F 81% 29.89 in 10.0 mi NE 8.1 mph - N/A   Overcast
2:55 AM 42.8 °F 38.6 °F 37.4 °F 81% 29.87 in 10.0 mi NE 6.9 mph - N/A   Overcast
3:15 AM 42.8 °F 37.5 °F 37.4 °F 81% 29.86 in 10.0 mi NE 9.2 mph - N/A   Overcast
3:35 AM 42.8 °F 37.0 °F 37.4 °F 81% 29.85 in 10.0 mi NE 10.4 mph - N/A   Overcast
3:55 AM 42.8 °F 37.5 °F 37.4 °F 81% 29.84 in 10.0 mi NE 9.2 mph 18.4 mph N/A   Overcast
4:15 AM 42.8 °F 38.0 °F 37.4 °F 81% 29.83 in 10.0 mi NE 8.1 mph - N/A   Overcast
4:35 AM 42.8 °F 38.6 °F 37.4 °F 81% 29.84 in 10.0 mi NE 6.9 mph - N/A   Overcast
4:55 AM 42.8 °F 37.5 °F 37.4 °F 81% 29.83 in 10.0 mi NE 9.2 mph - N/A   Overcast
5:15 AM 42.8 °F 39.3 °F 37.4 °F 81% 29.84 in 10.0 mi NE 5.8 mph - N/A   Overcast
5:35 AM 42.8 °F 38.0 °F 37.4 °F 81% 29.83 in 10.0 mi NNE 8.1 mph - N/A   Overcast
5:55 AM 42.8 °F 39.3 °F 37.4 °F 81% 29.83 in 10.0 mi NE 5.8 mph - N/A   Overcast
6:15 AM 42.8 °F 38.6 °F 37.4 °F 81% 29.83 in 10.0 mi NE 6.9 mph - N/A   Overcast
6:35 AM 42.8 °F 38.0 °F 37.4 °F 81% 29.83 in 10.0 mi NE 8.1 mph - N/A   Overcast
6:55 AM 42.8 °F 37.5 °F 37.4 °F 81% 29.83 in 10.0 mi NE 9.2 mph - N/A   Overcast
7:15 AM 42.8 °F 38.6 °F 37.4 °F 81% 29.83 in 10.0 mi NE 6.9 mph - N/A   Overcast
7:35 AM 44.6 °F 39.7 °F 37.4 °F 76% 29.83 in 10.0 mi NE 9.2 mph - N/A   Overcast
7:55 AM 44.6 °F 40.7 °F 37.4 °F 76% 29.83 in 10.0 mi NE 6.9 mph - N/A   Overcast
8:15 AM 44.6 °F 40.7 °F 39.2 °F 81% 29.84 in 10.0 mi NE 6.9 mph - N/A   Overcast
8:35 AM 44.6 °F 38.8 °F 39.2 °F 81% 29.83 in 10.0 mi NE 11.5 mph - N/A   Overcast
8:55 AM 44.6 °F 39.2 °F 39.2 °F 81% 29.83 in 10.0 mi NE 10.4 mph - N/A   Overcast
9:15 AM 44.6 °F 38.8 °F 41.0 °F 87% 29.83 in 10.0 mi NE 11.5 mph - N/A   Overcast
9:35 AM 46.4 °F 41.1 °F 41.0 °F 81% 29.83 in 10.0 mi NE 11.5 mph - N/A   Overcast
9:55 AM 46.4 °F 41.1 °F 41.0 °F 81% 29.83 in 10.0 mi NE 11.5 mph 16.1 mph N/A   Overcast
10:15 AM 46.4 °F 41.1 °F 41.0 °F 81% 29.83 in 10.0 mi NE 11.5 mph - N/A   Overcast
10:55 AM 46.4 °F 42.9 °F 41.0 °F 81% 29.83 in 10.0 mi NE 6.9 mph - N/A   Overcast
11:15 AM 48.2 °F - 42.8 °F 82% 29.82 in 10.0 mi NNE 9.2 mph - N/A   Overcast
11:35 AM 50.0 °F - 42.8 °F 76% 29.82 in 10.0 mi NE 6.9 mph - N/A   Overcast
11:55 AM 50.0 °F - 42.8 °F 76% 29.82 in 10.0 mi NE 10.4 mph - N/A   Overcast
12:15 PM 50.0 °F - 42.8 °F 76% 29.82 in 10.0 mi NE 10.4 mph - N/A   Overcast
12:35 PM 50.0 °F - 42.8 °F 76% 29.82 in 10.0 mi NE 10.4 mph - N/A   Overcast
12:55 PM 50.0 °F - 42.8 °F 76% 29.81 in 10.0 mi ENE 10.4 mph - N/A   Overcast
1:15 PM 50.0 °F - 42.8 °F 76% 29.81 in 10.0 mi NNE 10.4 mph - N/A   Overcast
1:35 PM 50.0 °F - 42.8 °F 76% 29.81 in 10.0 mi NE 6.9 mph - N/A   Overcast
1:55 PM 48.2 °F - 42.8 °F 82% 29.81 in 7.0 mi NNE 6.9 mph - N/A   Overcast
2:15 PM 46.4 °F 42.9 °F 44.6 °F 93% 29.81 in 5.0 mi North 6.9 mph - N/A   Overcast
2:35 PM 46.4 °F 43.5 °F 44.6 °F 93% 29.80 in 4.0 mi ENE 5.8 mph - N/A Rain Light Rain
2:55 PM 48.2 °F - 46.4 °F 93% 29.80 in 4.0 mi NE 6.9 mph - N/A Rain Light Rain
3:15 PM 48.2 °F - 46.4 °F 93% 29.80 in 7.0 mi NNE 4.6 mph - N/A   Drizzle
3:35 PM 48.2 °F - 46.4 °F 93% 29.79 in 7.0 mi NNE 5.8 mph - N/A Rain Light Rain
3:55 PM 48.2 °F - 46.4 °F 93% 29.79 in 7.0 mi North 6.9 mph - 0.01 in Rain Light Rain
4:15 PM 50.0 °F - 46.4 °F 87% 29.79 in 7.0 mi North 5.8 mph - N/A   Light Drizzle
4:35 PM 50.0 °F - 46.4 °F 87% 29.78 in 7.0 mi North 4.6 mph - N/A Rain Light Rain
4:55 PM 50.0 °F - 46.4 °F 87% 29.78 in 10.0 mi North 4.6 mph - N/A Rain Light Rain
5:15 PM 50.0 °F - 46.4 °F 87% 29.77 in 10.0 mi NNE 5.8 mph - 0.01 in Rain Rain
5:35 PM 50.0 °F - 46.4 °F 87% 29.78 in 10.0 mi NNE 4.6 mph - 0.01 in Rain Rain
5:55 PM 50.0 °F - 46.4 °F 87% 29.77 in 10.0 mi NE 5.8 mph - 0.01 in   Light Drizzle
6:15 PM 50.0 °F - 46.4 °F 87% 29.77 in 10.0 mi NE 5.8 mph - N/A   Light Drizzle
6:35 PM 50.0 °F - 46.4 °F 87% 29.77 in 10.0 mi ENE 6.9 mph - N/A Rain Light Rain
6:55 PM 50.0 °F - 46.4 °F 87% 29.77 in 10.0 mi NE 4.6 mph - N/A   Overcast
7:15 PM 50.0 °F - 46.4 °F 87% 29.77 in 10.0 mi NE 4.6 mph - N/A   Overcast
7:35 PM 48.2 °F - 46.4 °F 93% 29.77 in 10.0 mi NE 3.5 mph - N/A   Overcast
7:55 PM 48.2 °F - 46.4 °F 93% 29.78 in 4.0 mi NNE 3.5 mph - N/A   Drizzle
8:15 PM 46.4 °F 44.3 °F 46.4 °F 100% 29.78 in 2.5 mi NE 4.6 mph - 0.01 in   Heavy Drizzle
8:35 PM 46.4 °F - 46.4 °F 100% 29.78 in 2.5 mi Calm Calm - 0.02 in Rain Rain
8:55 PM 46.4 °F 45.2 °F 46.4 °F 100% 29.78 in 3.0 mi North 3.5 mph - 0.03 in Rain Rain
9:15 PM 46.4 °F 44.3 °F 46.4 °F 100% 29.77 in 4.0 mi NNE 4.6 mph - N/A   Drizzle
9:35 PM 46.4 °F 45.2 °F 46.4 °F 100% 29.77 in 5.0 mi NNE 3.5 mph - 0.01 in   Drizzle
9:55 PM 46.4 °F - 46.4 °F 100% 29.79 in 5.0 mi Calm Calm - 0.01 in   Light Drizzle
10:15 PM 46.4 °F - 46.4 °F 100% 29.80 in 5.0 mi Calm Calm - 0.01 in Rain Rain
10:35 PM 46.4 °F - 46.4 °F 100% 29.80 in 3.0 mi Calm Calm - 0.03 in Rain Rain
10:55 PM 46.4 °F - 46.4 °F 100% 29.80 in 3.0 mi Calm Calm - 0.05 in Rain Heavy Rain
11:15 PM 46.4 °F - 46.4 °F 100% 29.80 in 2.5 mi Calm Calm - 0.01 in   Heavy Drizzle
11:35 PM 46.4 °F - 46.4 °F 100% 29.79 in 2.5 mi Calm Calm - 0.01 in   Drizzle
11:55 PM 46.4 °F - 46.4 °F 100% 29.79 in 3.0 mi Calm Calm - 0.01 in   Light Drizzle